< < Back
Terminal Aerodrome Forecast


Current Version              Previous Versions:   1  2  3  4  5  6  7  8  9  

Terminal Aerodrome Forecast

998
FTUS42 KGSP 222320
TAFGSP
TAF
KGSP 222320Z 2300/2324 36007KT P6SM SKC
     FM231800 29004KT P6SM SKC=

Latest METAR

855
SAUS70 KWBC 230958
MTRGSP
METAR KGSP 230953Z 30004KT 10SM CLR 06/03 A3007 RMK AO2 SLP180
T00560033


USA.gov is the U.S. government's official web portal to all federal, state and local government web resources and services.